sensor_id;sensor_type;location;lat;lon;timestamp;pressure;altitude;pressure_sealevel;temperature;humidity
46394;BME280;32099;53.588;10.176;2023-04-25T00:00:14;100059.19;;;9.00;81.67
46394;BME280;32099;53.588;10.176;2023-04-25T00:02:40;100058.75;;;8.96;81.13
46394;BME280;32099;53.588;10.176;2023-04-25T00:05:06;100053.66;;;8.93;82.28
46394;BME280;32099;53.588;10.176;2023-04-25T00:07:31;100058.75;;;8.96;81.86
46394;BME280;32099;53.588;10.176;2023-04-25T00:09:57;100061.63;;;8.94;82.10
46394;BME280;32099;53.588;10.176;2023-04-25T00:12:23;100069.31;;;8.91;82.42
46394;BME280;32099;53.588;10.176;2023-04-25T00:14:48;100063.06;;;8.90;82.26
46394;BME280;32099;53.588;10.176;2023-04-25T00:17:15;100070.19;;;8.91;82.53
46394;BME280;32099;53.588;10.176;2023-04-25T00:19:41;100073.72;;;8.92;82.16
46394;BME280;32099;53.588;10.176;2023-04-25T00:22:06;100084.25;;;8.95;82.12
46394;BME280;32099;53.588;10.176;2023-04-25T00:24:32;100089.28;;;8.98;81.14
46394;BME280;32099;53.588;10.176;2023-04-25T00:26:58;100085.06;;;8.95;83.90
46394;BME280;32099;53.588;10.176;2023-04-25T00:29:23;100087.13;;;8.93;82.42
46394;BME280;32099;53.588;10.176;2023-04-25T00:31:48;100089.38;;;8.90;82.42
46394;BME280;32099;53.588;10.176;2023-04-25T00:34:14;100081.34;;;8.82;82.57
46394;BME280;32099;53.588;10.176;2023-04-25T00:36:39;100090.06;;;8.77;80.82
46394;BME280;32099;53.588;10.176;2023-04-25T00:39:04;100089.59;;;8.73;81.63
46394;BME280;32099;53.588;10.176;2023-04-25T00:41:31;100090.06;;;8.77;82.17
46394;BME280;32099;53.588;10.176;2023-04-25T00:43:57;100096.69;;;8.74;81.75
46394;BME280;32099;53.588;10.176;2023-04-25T00:46:24;100094.47;;;8.78;82.03
46394;BME280;32099;53.588;10.176;2023-04-25T00:48:49;100104.78;;;8.83;80.48
46394;BME280;32099;53.588;10.176;2023-04-25T00:51:16;100104.13;;;8.80;80.74
46394;BME280;32099;53.588;10.176;2023-04-25T00:53:45;100099.91;;;8.78;80.32
46394;BME280;32099;53.588;10.176;2023-04-25T00:56:11;100097.81;;;8.80;80.28
46394;BME280;32099;53.588;10.176;2023-04-25T00:58:36;100105.50;;;8.76;81.70
46394;BME280;32099;53.588;10.176;2023-04-25T01:01:03;100107.19;;;8.62;82.16
46394;BME280;32099;53.588;10.176;2023-04-25T01:03:29;100107.09;;;8.56;81.73
46394;BME280;32099;53.588;10.176;2023-04-25T01:05:57;100107.66;;;8.51;80.43
46394;BME280;32099;53.588;10.176;2023-04-25T01:08:23;100103.28;;;8.42;79.90
46394;BME280;32099;53.588;10.176;2023-04-25T01:10:52;100101.97;;;8.38;80.40
46394;BME280;32099;53.588;10.176;2023-04-25T01:13:17;100109.28;;;8.37;80.10
46394;BME280;32099;53.588;10.176;2023-04-25T01:15:43;100113.69;;;8.38;79.49
46394;BME280;32099;53.588;10.176;2023-04-25T01:18:08;100110.97;;;8.38;79.02
46394;BME280;32099;53.588;10.176;2023-04-25T01:20:34;100109.28;;;8.37;79.07
46394;BME280;32099;53.588;10.176;2023-04-25T01:23:03;100100.16;;;8.30;80.66
46394;BME280;32099;53.588;10.176;2023-04-25T01:25:29;100105.13;;;8.26;78.98
46394;BME280;32099;53.588;10.176;2023-04-25T01:27:55;100112.81;;;8.23;79.73
46394;BME280;32099;53.588;10.176;2023-04-25T01:30:22;100110.63;;;8.18;79.77
46394;BME280;32099;53.588;10.176;2023-04-25T01:32:48;100119.63;;;8.18;79.65
46394;BME280;32099;53.588;10.176;2023-04-25T01:35:14;100115.22;;;8.17;80.26
46394;BME280;32099;53.588;10.176;2023-04-25T01:37:40;100121.38;;;8.11;79.72
46394;BME280;32099;53.588;10.176;2023-04-25T01:40:07;100120.91;;;8.08;78.89
46394;BME280;32099;53.588;10.176;2023-04-25T01:42:35;100131.94;;;8.06;78.27
46394;BME280;32099;53.588;10.176;2023-04-25T01:45:02;100131.28;;;8.04;78.96
46394;BME280;32099;53.588;10.176;2023-04-25T01:47:28;100121.34;;;7.96;78.68
46394;BME280;32099;53.588;10.176;2023-04-25T01:49:54;100133.22;;;7.95;78.76
46394;BME280;32099;53.588;10.176;2023-04-25T01:52:19;100135.25;;;7.93;77.79
46394;BME280;32099;53.588;10.176;2023-04-25T01:54:45;100129.16;;;7.91;78.91
46394;BME280;32099;53.588;10.176;2023-04-25T01:57:11;100139.06;;;7.84;78.46
46394;BME280;32099;53.588;10.176;2023-04-25T01:59:37;100134.66;;;7.83;77.87
46394;BME280;32099;53.588;10.176;2023-04-25T02:02:02;100143.00;;;7.81;78.24
46394;BME280;32099;53.588;10.176;2023-04-25T02:04:30;100146.88;;;7.79;78.10
46394;BME280;32099;53.588;10.176;2023-04-25T02:06:56;100149.59;;;7.79;77.51
46394;BME280;32099;53.588;10.176;2023-04-25T02:09:21;100140.63;;;7.78;77.35
46394;BME280;32099;53.588;10.176;2023-04-25T02:11:47;100146.41;;;7.75;78.08
46394;BME280;32099;53.588;10.176;2023-04-25T02:14:12;100153.06;;;7.72;76.72
46394;BME280;32099;53.588;10.176;2023-04-25T02:16:37;100156.25;;;7.76;76.47
46394;BME280;32099;53.588;10.176;2023-04-25T02:19:04;100154.75;;;7.74;75.91
46394;BME280;32099;53.588;10.176;2023-04-25T02:21:30;100158.81;;;7.69;76.92
46394;BME280;32099;53.588;10.176;2023-04-25T02:23:56;100150.91;;;7.60;74.96
46394;BME280;32099;53.588;10.176;2023-04-25T02:26:21;100157.53;;;7.57;75.54
46394;BME280;32099;53.588;10.176;2023-04-25T02:28:48;100163.69;;;7.51;74.91
46394;BME280;32099;53.588;10.176;2023-04-25T02:31:14;100165.41;;;7.44;75.43
46394;BME280;32099;53.588;10.176;2023-04-25T02:33:39;100154.06;;;7.40;74.83
46394;BME280;32099;53.588;10.176;2023-04-25T02:36:05;100157.78;;;7.39;75.06
46394;BME280;32099;53.588;10.176;2023-04-25T02:38:30;100153.03;;;7.41;74.68
46394;BME280;32099;53.588;10.176;2023-04-25T02:40:56;100153.91;;;7.41;74.86
46394;BME280;32099;53.588;10.176;2023-04-25T02:43:21;100155.06;;;7.39;75.12
46394;BME280;32099;53.588;10.176;2023-04-25T02:45:47;100156.09;;;7.38;74.72
46394;BME280;32099;53.588;10.176;2023-04-25T02:48:12;100154.25;;;7.38;74.50
46394;BME280;32099;53.588;10.176;2023-04-25T02:50:37;100163.59;;;7.36;75.24
46394;BME280;32099;53.588;10.176;2023-04-25T02:53:02;100156.63;;;7.33;74.68
46394;BME280;32099;53.588;10.176;2023-04-25T02:55:28;100163.41;;;7.37;74.52
46394;BME280;32099;53.588;10.176;2023-04-25T02:57:53;100162.38;;;7.38;75.02
46394;BME280;32099;53.588;10.176;2023-04-25T03:00:20;100163.41;;;7.37;74.68
46394;BME280;32099;53.588;10.176;2023-04-25T03:02:45;100160.88;;;7.36;74.75
46394;BME280;32099;53.588;10.176;2023-04-25T03:05:11;100163.59;;;7.36;74.17
46394;BME280;32099;53.588;10.176;2023-04-25T03:07:36;100156.81;;;7.32;74.69
46394;BME280;32099;53.588;10.176;2023-04-25T03:10:01;100169.88;;;7.28;73.91
46394;BME280;32099;53.588;10.176;2023-04-25T03:12:27;100164.31;;;7.21;72.82
46394;BME280;32099;53.588;10.176;2023-04-25T03:14:52;100162.63;;;7.20;73.67
46394;BME280;32099;53.588;10.176;2023-04-25T03:17:18;100160.94;;;7.19;73.34
46394;BME280;32099;53.588;10.176;2023-04-25T03:19:43;100168.41;;;7.17;74.56
46394;BME280;32099;53.588;10.176;2023-04-25T03:22:08;100168.59;;;7.16;73.77
46394;BME280;32099;53.588;10.176;2023-04-25T03:24:33;100174.53;;;7.11;72.74
46394;BME280;32099;53.588;10.176;2023-04-25T03:26:59;100177.75;;;7.06;72.20
46394;BME280;32099;53.588;10.176;2023-04-25T03:29:25;100184.72;;;7.01;73.13
46394;BME280;32099;53.588;10.176;2023-04-25T03:31:52;100188.47;;;7.00;72.49
46394;BME280;32099;53.588;10.176;2023-04-25T03:34:17;100194.41;;;6.95;72.31
46394;BME280;32099;53.588;10.176;2023-04-25T03:36:43;100195.56;;;6.92;71.63
46394;BME280;32099;53.588;10.176;2023-04-25T03:39:08;100199.81;;;6.87;71.29
46394;BME280;32099;53.588;10.176;2023-04-25T03:41:33;100196.13;;;6.79;72.03
46394;BME280;32099;53.588;10.176;2023-04-25T03:43:59;100207.78;;;6.80;71.62
46394;BME280;32099;53.588;10.176;2023-04-25T03:46:24;100202.06;;;6.75;70.74
46394;BME280;32099;53.588;10.176;2023-04-25T03:48:50;100204.25;;;6.71;71.30
46394;BME280;32099;53.588;10.176;2023-04-25T03:51:15;100200.88;;;6.69;71.12
46394;BME280;32099;53.588;10.176;2023-04-25T03:53:40;100199.34;;;6.67;71.44
46394;BME280;32099;53.588;10.176;2023-04-25T03:56:06;100212.03;;;6.66;71.62
46394;BME280;32099;53.588;10.176;2023-04-25T03:58:31;100214.75;;;6.58;71.67
46394;BME280;32099;53.588;10.176;2023-04-25T04:00:56;100204.06;;;6.56;71.39
46394;BME280;32099;53.588;10.176;2023-04-25T04:03:22;100212.88;;;6.58;71.67
46394;BME280;32099;53.588;10.176;2023-04-25T04:05:47;100227.28;;;6.59;71.55
46394;BME280;32099;53.588;10.176;2023-04-25T04:08:12;100224.72;;;6.57;71.01
46394;BME280;32099;53.588;10.176;2023-04-25T04:10:37;100227.13;;;6.60;69.78
46394;BME280;32099;53.588;10.176;2023-04-25T04:13:03;100231.69;;;6.60;70.86
46394;BME280;32099;53.588;10.176;2023-04-25T04:15:28;100232.53;;;6.60;70.68
46394;BME280;32099;53.588;10.176;2023-04-25T04:17:54;100222.38;;;6.62;70.77
46394;BME280;32099;53.588;10.176;2023-04-25T04:20:19;100240.16;;;6.65;70.02
46394;BME280;32099;53.588;10.176;2023-04-25T04:22:45;100228.63;;;6.63;70.01
46394;BME280;32099;53.588;10.176;2023-04-25T04:25:10;100231.53;;;6.61;69.71
46394;BME280;32099;53.588;10.176;2023-04-25T04:27:36;100230.16;;;6.57;69.06
46394;BME280;32099;53.588;10.176;2023-04-25T04:30:02;100242.00;;;6.56;69.22
46394;BME280;32099;53.588;10.176;2023-04-25T04:32:28;100238.66;;;6.54;69.74
46394;BME280;32099;53.588;10.176;2023-04-25T04:34:55;100241.16;;;6.56;69.66
46394;BME280;32099;53.588;10.176;2023-04-25T04:37:20;100242.19;;;6.55;69.21
46394;BME280;32099;53.588;10.176;2023-04-25T04:39:46;100250.63;;;6.52;68.83
46394;BME280;32099;53.588;10.176;2023-04-25T04:42:12;100242.00;;;6.48;68.60
46394;BME280;32099;53.588;10.176;2023-04-25T04:44:37;100244.72;;;6.48;68.62
46394;BME280;32099;53.588;10.176;2023-04-25T04:47:03;100248.28;;;6.57;68.84
46394;BME280;32099;53.588;10.176;2023-04-25T04:49:31;100258.94;;;6.58;68.09
46394;BME280;32099;53.588;10.176;2023-04-25T04:51:56;100254.38;;;6.59;68.36
46394;BME280;32099;53.588;10.176;2023-04-25T04:54:22;100259.44;;;6.62;69.39
46394;BME280;32099;53.588;10.176;2023-04-25T04:56:47;100261.50;;;6.68;68.86
46394;BME280;32099;53.588;10.176;2023-04-25T04:59:12;100257.44;;;6.72;67.63
46394;BME280;32099;53.588;10.176;2023-04-25T05:01:38;100264.53;;;6.73;67.14
46394;BME280;32099;53.588;10.176;2023-04-25T05:04:03;100268.28;;;6.72;68.27
46394;BME280;32099;53.588;10.176;2023-04-25T05:06:29;100271.81;;;6.73;67.72
46394;BME280;32099;53.588;10.176;2023-04-25T05:08:55;100267.22;;;6.73;66.82
46394;BME280;32099;53.588;10.176;2023-04-25T05:11:21;100269.28;;;6.79;67.71
46394;BME280;32099;53.588;10.176;2023-04-25T05:13:48;100277.59;;;6.86;67.79
46394;BME280;32099;53.588;10.176;2023-04-25T05:16:14;100276.56;;;6.95;68.31
46394;BME280;32099;53.588;10.176;2023-04-25T05:18:39;100283.16;;;7.01;67.81
46394;BME280;32099;53.588;10.176;2023-04-25T05:21:05;100286.38;;;7.05;66.30
46394;BME280;32099;53.588;10.176;2023-04-25T05:23:31;100286.22;;;7.06;66.22
46394;BME280;32099;53.588;10.176;2023-04-25T05:25:57;100303.31;;;7.07;65.41
46394;BME280;32099;53.588;10.176;2023-04-25T05:28:23;100296.72;;;7.01;65.22
46394;BME280;32099;53.588;10.176;2023-04-25T05:30:48;100292.13;;;6.93;66.00
46394;BME280;32099;53.588;10.176;2023-04-25T05:33:14;100292.31;;;6.84;66.38
46394;BME280;32099;53.588;10.176;2023-04-25T05:35:40;100298.56;;;6.84;67.05
46394;BME280;32099;53.588;10.176;2023-04-25T05:38:05;100306.19;;;6.89;66.63
46394;BME280;32099;53.588;10.176;2023-04-25T05:40:31;100305.19;;;6.90;66.53
46394;BME280;32099;53.588;10.176;2023-04-25T05:42:56;100316.84;;;6.90;68.15
46394;BME280;32099;53.588;10.176;2023-04-25T05:45:22;100311.81;;;6.87;68.44
46394;BME280;32099;53.588;10.176;2023-04-25T05:47:47;100317.38;;;6.86;68.72
46394;BME280;32099;53.588;10.176;2023-04-25T05:50:12;100325.53;;;6.94;68.78
46394;BME280;32099;53.588;10.176;2023-04-25T05:52:37;100320.44;;;6.99;68.51
46394;BME280;32099;53.588;10.176;2023-04-25T05:55:03;100320.09;;;7.02;68.41
46394;BME280;32099;53.588;10.176;2023-04-25T05:57:29;100320.44;;;6.99;68.54
46394;BME280;32099;53.588;10.176;2023-04-25T05:59:54;100318.56;;;7.00;68.63
46394;BME280;32099;53.588;10.176;2023-04-25T06:02:20;100320.94;;;7.03;69.39
46394;BME280;32099;53.588;10.176;2023-04-25T06:04:46;100334.66;;;7.09;69.04
46394;BME280;32099;53.588;10.176;2023-04-25T06:07:12;100332.81;;;7.10;69.27
46394;BME280;32099;53.588;10.176;2023-04-25T06:09:38;100341.63;;;7.12;68.55
46394;BME280;32099;53.588;10.176;2023-04-25T06:12:04;100334.66;;;7.09;69.91
46394;BME280;32099;53.588;10.176;2023-04-25T06:14:30;100327.88;;;7.14;69.51
46394;BME280;32099;53.588;10.176;2023-04-25T06:16:55;100315.84;;;7.16;69.89
46394;BME280;32099;53.588;10.176;2023-04-25T06:19:21;100326.00;;;7.22;69.37
46394;BME280;32099;53.588;10.176;2023-04-25T06:21:46;100326.50;;;7.26;68.78
46394;BME280;32099;53.588;10.176;2023-04-25T06:24:12;100334.47;;;7.36;68.90
46394;BME280;32099;53.588;10.176;2023-04-25T06:26:37;100332.75;;;7.43;69.26
46394;BME280;32099;53.588;10.176;2023-04-25T06:29:02;100327.78;;;7.55;68.60
46394;BME280;32099;53.588;10.176;2023-04-25T06:31:27;100328.97;;;7.69;68.85
46394;BME280;32099;53.588;10.176;2023-04-25T06:33:53;100334.84;;;7.81;66.58
46394;BME280;32099;53.588;10.176;2023-04-25T06:36:19;100338.91;;;7.85;68.11
46394;BME280;32099;53.588;10.176;2023-04-25T06:38:50;100339.75;;;7.94;67.59
46394;BME280;32099;53.588;10.176;2023-04-25T06:41:15;100343.09;;;8.04;66.60
46394;BME280;32099;53.588;10.176;2023-04-25T06:43:41;100330.00;;;8.08;66.18
46394;BME280;32099;53.588;10.176;2023-04-25T06:46:06;100341.88;;;8.07;66.29
46394;BME280;32099;53.588;10.176;2023-04-25T06:48:31;100349.69;;;8.10;66.36
46394;BME280;32099;53.588;10.176;2023-04-25T06:50:56;100348.00;;;8.09;66.03
46394;BME280;32099;53.588;10.176;2023-04-25T06:53:22;100340.38;;;8.04;66.07
46394;BME280;32099;53.588;10.176;2023-04-25T06:55:47;100342.94;;;7.97;66.51
46394;BME280;32099;53.588;10.176;2023-04-25T06:58:12;100348.69;;;8.02;66.64
46394;BME280;32099;53.588;10.176;2023-04-25T07:00:37;100344.78;;;8.05;65.46
46394;BME280;32099;53.588;10.176;2023-04-25T07:03:03;100357.69;;;8.03;66.04
46394;BME280;32099;53.588;10.176;2023-04-25T07:05:28;100367.34;;;8.06;67.07
46394;BME280;32099;53.588;10.176;2023-04-25T07:07:53;100361.72;;;8.15;67.12
46394;BME280;32099;53.588;10.176;2023-04-25T07:10:19;100354.88;;;8.28;67.01
46394;BME280;32099;53.588;10.176;2023-04-25T07:12:46;100365.00;;;8.34;65.64
46394;BME280;32099;53.588;10.176;2023-04-25T07:15:11;100366.50;;;8.37;64.84
46394;BME280;32099;53.588;10.176;2023-04-25T07:17:36;100370.78;;;8.39;65.39
46394;BME280;32099;53.588;10.176;2023-04-25T07:20:02;100373.50;;;8.39;65.95
46394;BME280;32099;53.588;10.176;2023-04-25T07:22:28;100361.94;;;8.37;65.62
46394;BME280;32099;53.588;10.176;2023-04-25T07:24:54;100372.28;;;8.42;65.66
46394;BME280;32099;53.588;10.176;2023-04-25T07:27:19;100373.34;;;8.32;64.50
46394;BME280;32099;53.588;10.176;2023-04-25T07:29:45;100385.09;;;8.25;64.96
46394;BME280;32099;53.588;10.176;2023-04-25T07:32:10;100403.91;;;8.26;65.86
46394;BME280;32099;53.588;10.176;2023-04-25T07:34:37;100396.97;;;8.24;66.81
46394;BME280;32099;53.588;10.176;2023-04-25T07:37:03;100396.16;;;8.15;68.04
46394;BME280;32099;53.588;10.176;2023-04-25T07:39:29;100384.69;;;7.96;67.84
46394;BME280;32099;53.588;10.176;2023-04-25T07:41:54;100391.81;;;7.89;68.99
46394;BME280;32099;53.588;10.176;2023-04-25T07:44:20;100384.34;;;7.99;69.84
46394;BME280;32099;53.588;10.176;2023-04-25T07:46:45;100387.34;;;8.13;70.03
46394;BME280;32099;53.588;10.176;2023-04-25T07:49:10;100389.66;;;8.24;70.04
46394;BME280;32099;53.588;10.176;2023-04-25T07:51:35;100389.28;;;8.36;69.18
46394;BME280;32099;53.588;10.176;2023-04-25T07:54:01;100395.31;;;8.46;70.29
46394;BME280;32099;53.588;10.176;2023-04-25T07:56:26;100391.91;;;8.60;69.61
46394;BME280;32099;53.588;10.176;2023-04-25T07:58:51;100385.88;;;8.73;67.74
46394;BME280;32099;53.588;10.176;2023-04-25T08:01:17;100389.22;;;8.84;68.05
46394;BME280;32099;53.588;10.176;2023-04-25T08:03:42;100386.25;;;8.93;67.82
46394;BME280;32099;53.588;10.176;2023-04-25T08:06:07;100387.34;;;9.07;68.12
46394;BME280;32099;53.588;10.176;2023-04-25T08:08:33;100392.19;;;9.35;67.35
46394;BME280;32099;53.588;10.176;2023-04-25T08:10:58;100388.69;;;9.80;65.86
46394;BME280;32099;53.588;10.176;2023-04-25T08:13:24;100388.44;;;10.04;62.52
46394;BME280;32099;53.588;10.176;2023-04-25T08:15:49;100402.25;;;10.03;64.09
46394;BME280;32099;53.588;10.176;2023-04-25T08:18:14;100394.72;;;9.90;61.12
46394;BME280;32099;53.588;10.176;2023-04-25T08:20:40;100398.75;;;9.79;63.62
46394;BME280;32099;53.588;10.176;2023-04-25T08:23:05;100406.47;;;9.76;63.57
46394;BME280;32099;53.588;10.176;2023-04-25T08:25:30;100417.59;;;9.66;62.62
46394;BME280;32099;53.588;10.176;2023-04-25T08:27:56;100427.63;;;9.50;64.25
46394;BME280;32099;53.588;10.176;2023-04-25T08:30:22;100438.19;;;9.30;64.58
46394;BME280;32099;53.588;10.176;2023-04-25T08:32:47;100456.19;;;9.08;65.58
46394;BME280;32099;53.588;10.176;2023-04-25T08:35:12;100459.16;;;8.67;67.08
46394;BME280;32099;53.588;10.176;2023-04-25T08:37:37;100456.41;;;8.27;68.65
46394;BME280;32099;53.588;10.176;2023-04-25T08:40:03;100448.84;;;7.89;69.88
46394;BME280;32099;53.588;10.176;2023-04-25T08:42:31;100434.97;;;7.76;70.83
46394;BME280;32099;53.588;10.176;2023-04-25T08:45:00;100443.03;;;8.00;71.40
46394;BME280;32099;53.588;10.176;2023-04-25T08:47:26;100441.69;;;8.53;71.62
46394;BME280;32099;53.588;10.176;2023-04-25T08:49:53;100443.59;;;9.07;71.43
46394;BME280;32099;53.588;10.176;2023-04-25T08:52:21;100447.72;;;9.26;70.65
46394;BME280;32099;53.588;10.176;2023-04-25T08:54:48;100448.75;;;9.25;68.89
46394;BME280;32099;53.588;10.176;2023-04-25T08:57:14;100461.94;;;9.13;69.56
46394;BME280;32099;53.588;10.176;2023-04-25T08:59:40;100468.00;;;8.92;69.95
46394;BME280;32099;53.588;10.176;2023-04-25T09:02:09;100470.66;;;8.77;69.55
46394;BME280;32099;53.588;10.176;2023-04-25T09:04:39;100482.06;;;8.64;71.43
46394;BME280;32099;53.588;10.176;2023-04-25T09:07:05;100465.47;;;8.59;71.80
46394;BME280;32099;53.588;10.176;2023-04-25T09:09:31;100464.25;;;8.61;71.30
46394;BME280;32099;53.588;10.176;2023-04-25T09:11:56;100476.75;;;8.79;71.80
46394;BME280;32099;53.588;10.176;2023-04-25T09:14:22;100471.94;;;9.13;72.23
46394;BME280;32099;53.588;10.176;2023-04-25T09:16:57;100471.59;;;9.62;69.39
46394;BME280;32099;53.588;10.176;2023-04-25T09:19:27;100471.59;;;10.15;69.93
46394;BME280;32099;53.588;10.176;2023-04-25T09:21:57;100475.81;;;10.33;66.57
46394;BME280;32099;53.588;10.176;2023-04-25T09:24:38;100477.50;;;10.19;64.39
46394;BME280;32099;53.588;10.176;2023-04-25T09:27:11;100492.13;;;9.88;64.80
46394;BME280;32099;53.588;10.176;2023-04-25T09:29:38;100489.34;;;9.73;65.30
46394;BME280;32099;53.588;10.176;2023-04-25T09:32:13;100493.00;;;9.65;62.82
46394;BME280;32099;53.588;10.176;2023-04-25T09:34:39;100496.25;;;9.61;65.26
46394;BME280;32099;53.588;10.176;2023-04-25T09:37:06;100498.00;;;9.77;64.74
46394;BME280;32099;53.588;10.176;2023-04-25T09:39:32;100496.81;;;9.94;65.28
46394;BME280;32099;53.588;10.176;2023-04-25T09:41:58;100509.72;;;10.15;63.79
46394;BME280;32099;53.588;10.176;2023-04-25T09:44:24;100511.25;;;10.48;64.54
46394;BME280;32099;53.588;10.176;2023-04-25T09:46:49;100508.91;;;10.75;60.84
46394;BME280;32099;53.588;10.176;2023-04-25T09:49:19;100519.25;;;10.64;61.55
46394;BME280;32099;53.588;10.176;2023-04-25T09:51:55;100524.81;;;10.56;61.08
46394;BME280;32099;53.588;10.176;2023-04-25T09:54:21;100537.34;;;10.27;60.20
46394;BME280;32099;53.588;10.176;2023-04-25T09:56:48;100556.16;;;9.84;63.83
46394;BME280;32099;53.588;10.176;2023-04-25T09:59:16;100565.28;;;9.45;64.46
46394;BME280;32099;53.588;10.176;2023-04-25T10:01:45;100544.25;;;9.07;66.53
46394;BME280;32099;53.588;10.176;2023-04-25T10:04:11;100546.03;;;8.91;67.21
46394;BME280;32099;53.588;10.176;2023-04-25T10:06:37;100536.00;;;8.92;67.57
46394;BME280;32099;53.588;10.176;2023-04-25T10:09:02;100546.28;;;9.05;67.31
46394;BME280;32099;53.588;10.176;2023-04-25T10:11:29;100541.25;;;9.25;68.20
46394;BME280;32099;53.588;10.176;2023-04-25T10:13:56;100545.63;;;9.57;67.54
46394;BME280;32099;53.588;10.176;2023-04-25T10:16:22;100545.84;;;9.94;67.00
46394;BME280;32099;53.588;10.176;2023-04-25T10:18:49;100545.81;;;10.17;65.71
46394;BME280;32099;53.588;10.176;2023-04-25T10:21:15;100549.16;;;10.43;65.25
46394;BME280;32099;53.588;10.176;2023-04-25T10:23:41;100544.84;;;10.48;65.62
46394;BME280;32099;53.588;10.176;2023-04-25T10:26:07;100542.56;;;10.67;65.22
46394;BME280;32099;53.588;10.176;2023-04-25T10:31:22;100543.59;;;10.96;60.81
46394;BME280;32099;53.588;10.176;2023-04-25T10:33:48;100550.25;;;11.08;62.07
46394;BME280;32099;53.588;10.176;2023-04-25T10:36:17;100554.72;;;11.16;57.76
46394;BME280;32099;53.588;10.176;2023-04-25T10:38:44;100553.31;;;11.20;54.20
46394;BME280;32099;53.588;10.176;2023-04-25T10:41:11;100562.81;;;11.24;56.39
46394;BME280;32099;53.588;10.176;2023-04-25T10:43:38;100553.59;;;11.25;55.46
46394;BME280;32099;53.588;10.176;2023-04-25T10:48:50;100548.75;;;11.42;55.81
46394;BME280;32099;53.588;10.176;2023-04-25T10:51:18;100544.47;;;11.55;57.35
46394;BME280;32099;53.588;10.176;2023-04-25T10:53:45;100541.72;;;11.77;55.16
46394;BME280;32099;53.588;10.176;2023-04-25T10:56:21;100548.41;;;11.96;53.55
46394;BME280;32099;53.588;10.176;2023-04-25T10:58:47;100547.50;;;11.88;51.21
46394;BME280;32099;53.588;10.176;2023-04-25T11:01:14;100550.50;;;11.94;56.17
46394;BME280;32099;53.588;10.176;2023-04-25T11:03:40;100554.06;;;12.16;55.48
46394;BME280;32099;53.588;10.176;2023-04-25T11:09:02;100547.75;;;11.94;55.78
46394;BME280;32099;53.588;10.176;2023-04-25T11:11:33;100566.69;;;11.73;54.19
46394;BME280;32099;53.588;10.176;2023-04-25T11:14:01;100548.53;;;11.44;57.04
46394;BME280;32099;53.588;10.176;2023-04-25T11:16:27;100557.81;;;11.28;55.94
46394;BME280;32099;53.588;10.176;2023-04-25T11:18:52;100565.44;;;11.33;55.32
46394;BME280;32099;53.588;10.176;2023-04-25T11:21:17;100573.69;;;11.39;57.17
46394;BME280;32099;53.588;10.176;2023-04-25T11:23:44;100582.63;;;11.33;54.87
46394;BME280;32099;53.588;10.176;2023-04-25T11:26:11;100577.81;;;10.99;58.00
46394;BME280;32099;53.588;10.176;2023-04-25T11:28:37;100594.00;;;10.55;60.00
46394;BME280;32099;53.588;10.176;2023-04-25T11:31:03;100591.38;;;10.24;61.76
46394;BME280;32099;53.588;10.176;2023-04-25T11:33:29;100590.75;;;9.98;61.83
46394;BME280;32099;53.588;10.176;2023-04-25T11:35:54;100592.22;;;9.86;61.61
46394;BME280;32099;53.588;10.176;2023-04-25T11:38:22;100588.81;;;9.84;61.92
46394;BME280;32099;53.588;10.176;2023-04-25T11:40:51;100592.56;;;9.83;61.07
46394;BME280;32099;53.588;10.176;2023-04-25T11:43:17;100596.97;;;10.07;61.88
46394;BME280;32099;53.588;10.176;2023-04-25T11:45:46;100588.47;;;10.25;59.00
46394;BME280;32099;53.588;10.176;2023-04-25T11:48:12;100598.19;;;10.28;60.34
46394;BME280;32099;53.588;10.176;2023-04-25T11:50:38;100598.44;;;10.33;60.63
46394;BME280;32099;53.588;10.176;2023-04-25T11:53:04;100605.41;;;10.35;60.32
46394;BME280;32099;53.588;10.176;2023-04-25T11:55:31;100596.19;;;10.37;58.89
46394;BME280;32099;53.588;10.176;2023-04-25T11:57:59;100606.03;;;10.46;59.37
46394;BME280;32099;53.588;10.176;2023-04-25T12:00:25;100589.69;;;10.61;56.75
46394;BME280;32099;53.588;10.176;2023-04-25T12:02:51;100598.44;;;10.86;58.56
46394;BME280;32099;53.588;10.176;2023-04-25T12:05:17;100599.06;;;11.03;57.77
46394;BME280;32099;53.588;10.176;2023-04-25T12:07:44;100593.72;;;11.10;57.68
46394;BME280;32099;53.588;10.176;2023-04-25T12:10:11;100596.03;;;11.28;58.77
46394;BME280;32099;53.588;10.176;2023-04-25T12:12:38;100613.88;;;11.46;57.17
46394;BME280;32099;53.588;10.176;2023-04-25T12:17:41;100612.66;;;11.48;58.08
46394;BME280;32099;53.588;10.176;2023-04-25T12:20:10;100608.56;;;11.59;56.54
46394;BME280;32099;53.588;10.176;2023-04-25T12:22:37;100613.84;;;11.82;50.78
46394;BME280;32099;53.588;10.176;2023-04-25T12:25:03;100619.94;;;11.99;50.07
46394;BME280;32099;53.588;10.176;2023-04-25T12:27:30;100602.69;;;11.99;50.83
46394;BME280;32099;53.588;10.176;2023-04-25T12:29:56;100612.53;;;11.78;48.21
46394;BME280;32099;53.588;10.176;2023-04-25T12:32:22;100614.63;;;11.76;50.75
46394;BME280;32099;53.588;10.176;2023-04-25T12:34:48;100623.41;;;11.93;49.49
46394;BME280;32099;53.588;10.176;2023-04-25T12:37:13;100623.63;;;12.13;48.81
46394;BME280;32099;53.588;10.176;2023-04-25T12:39:38;100634.53;;;12.35;48.19
46394;BME280;32099;53.588;10.176;2023-04-25T12:42:04;100625.16;;;12.44;48.98
46394;BME280;32099;53.588;10.176;2023-04-25T12:44:29;100626.25;;;12.50;45.32
46394;BME280;32099;53.588;10.176;2023-04-25T12:46:54;100630.44;;;12.46;45.78
46394;BME280;32099;53.588;10.176;2023-04-25T12:49:20;100623.50;;;12.50;47.28
46394;BME280;32099;53.588;10.176;2023-04-25T12:51:45;100634.06;;;12.53;47.65